Weather at Grovedale Airport [CLOSED]

Public forecast

Using degrees Celsius for public forecast. Weather courtesy of forecast.io.

Closest aviation weather report (METAR) to Grovedale Airport

Closest report is Avalon Airport, 12.4 nm (23.0 km) NNE.

2024/07/18 18:00 (retrieved 18 minutes ago)

YMAV 181800Z AUTO 05007KT 9999 // NCD 06/03 Q1011 RF000/0000

Closest aviation forecast (TAF) to Grovedale Airport

Closest forecast is Avalon Airport, 12.4 nm (23.0 km) NNE.

2024/07/18 18:36 (retrieved 0 seconds ago)

TAF YMAV 181721Z 1818/1918 35012KT CAVOK FM182300 34015G30KT CAVOK FM190200 35015G32KT 9999 -RA BKN040 FM191500 32015G25KT 9999 -SHRA BKN040